Darstellungsparameter: Aktuell verwendete Einstellungen:
Skalierung der Graphiken ... ?
xyx+y,   Skalierungsfaktor:      Skalierung: Modus: x, Faktor: 1
Darstellungszeitraum ... ?
Vom - - bis: - -   Zeitraum: 21.05.2003 - 21.05.2003
Min/Max/Avg-Anzeige ... ?
Zeige MMA aktuell
Zeige MMA Monat
Zeige MMA alles
Zeige --A aktuell
Zeige --A Monat
Zeige --A alles
Keine MMA-Anzeige
MMA:
Keine MMA-Graphiken
MMA-Basis: 21.05.2003 - 21.05.2003
Quicknavigation für Darstellung... ?
Tage:      1T, 2T, 3T, 5T -1T -2T -3T -5T +1T +2T +3T +5T
Wochen: 1W, 2W, 3W -1W -2W -3W +1W +2W +3W
Monate: 1M, 3M, 6M -1M -3M -6M +1M +3M +6M
Jahre:    1J, 3J, 5J, 10J -1J -3J -5J -10J +1J +3J +5J +10J
Nutze für die Darstellung ... ?
Originaldaten oder Mittelwerte auf ...
Stundenbasis Tagesbasis Wochenbasis
Monatsbasis Jahresbasis      Datenbasis: Original-Daten
Darstellen als:
Statistik (Auto) Statistik J:M      Darstellung:
Zur Graphik,    zurück zur Übersicht aller Sensoren.
 
Tabellarische Datenbersicht: ?
 
Sensor: Nr:Datum:Temp:Feuchte:Taupunkt:
Aussen-T/F 1 21-05-2003 00:07:01 11.1 C 72 % 6.25 C
2 21-05-2003 00:17:01 11 C 70 % 5.75 C
3 21-05-2003 00:27:01 11.2 C 63 % 4.43 C
4 21-05-2003 00:37:01 11.3 C 61 % 4.06 C
5 21-05-2003 00:47:01 11.3 C 61 % 4.06 C
6 21-05-2003 00:57:01 11.3 C 60 % 3.83 C
7 21-05-2003 01:07:01 11.2 C 59 % 3.5 C
8 21-05-2003 01:17:01 11.2 C 58 % 3.25 C
9 21-05-2003 01:27:01 11.1 C 59 % 3.4 C
10 21-05-2003 01:37:01 10.7 C 62 % 3.73 C
11 21-05-2003 01:47:01 10.3 C 65 % 4.02 C
12 21-05-2003 01:57:01 10 C 67 % 4.16 C
13 21-05-2003 02:07:01 9.8 C 69 % 4.39 C
14 21-05-2003 02:17:01 9.7 C 70 % 4.5 C
15 21-05-2003 02:27:01 9.7 C 70 % 4.5 C
16 21-05-2003 02:37:01 9.5 C 72 % 4.71 C
17 21-05-2003 02:47:01 9.5 C 72 % 4.71 C
18 21-05-2003 02:57:01 9.5 C 74 % 5.1 C
19 21-05-2003 03:07:01 9.5 C 73 % 4.91 C
20 21-05-2003 03:17:01 9.7 C 73 % 5.1 C
21 21-05-2003 03:27:01 9.5 C 76 % 5.49 C
22 21-05-2003 03:37:01 9.3 C 80 % 6.03 C
23 21-05-2003 03:47:01 9.2 C 81 % 6.11 C
24 21-05-2003 03:57:01 9.2 C 82 % 6.29 C
25 21-05-2003 04:07:01 9.5 C 80 % 6.23 C
Sensor: Nr:Datum:Temp:Feuchte:Taupunkt:
Aussen-T/F 26 21-05-2003 04:17:01 9.3 C 81 % 6.21 C
27 21-05-2003 04:27:01 9.2 C 83 % 6.47 C
28 21-05-2003 04:37:01 9.3 C 84 % 6.74 C
29 21-05-2003 04:47:01 9.1 C 84 % 6.54 C
30 21-05-2003 04:57:01 9.1 C 85 % 6.72 C
31 21-05-2003 05:07:01 9.1 C 85 % 6.72 C
32 21-05-2003 05:17:01 9 C 85 % 6.62 C
33 21-05-2003 05:27:01 9.1 C 85 % 6.72 C
34 21-05-2003 05:37:01 9 C 85 % 6.62 C
35 21-05-2003 05:47:01 9 C 86 % 6.79 C
36 21-05-2003 05:57:01 8.9 C 89 % 7.19 C
37 21-05-2003 06:07:01 8.8 C 90 % 7.25 C
38 21-05-2003 06:17:01 8.8 C 90 % 7.25 C
39 21-05-2003 06:27:01 8.9 C 90 % 7.35 C
40 21-05-2003 06:47:01 9.2 C 86 % 6.98 C
41 21-05-2003 06:57:01 9.2 C 85 % 6.81 C
42 21-05-2003 07:07:01 9.4 C 85 % 7.01 C
43 21-05-2003 07:17:01 9.4 C 85 % 7.01 C
44 21-05-2003 07:27:01 9.4 C 85 % 7.01 C
45 21-05-2003 07:37:01 9.9 C 84 % 7.33 C
46 21-05-2003 07:47:01 9.9 C 83 % 7.15 C
47 21-05-2003 07:57:01 9.9 C 83 % 7.15 C
48 21-05-2003 08:07:02 9.9 C 83 % 7.15 C
49 21-05-2003 08:17:02 10.1 C 81 % 6.99 C
50 21-05-2003 08:27:02 10.6 C 81 % 7.48 C
Sensor: Nr:Datum:Temp:Feuchte:Taupunkt:
Aussen-T/F 51 21-05-2003 08:37:01 11.1 C 78 % 7.41 C
52 21-05-2003 08:47:01 11.2 C 77 % 7.32 C
53 21-05-2003 08:57:01 11.3 C 75 % 7.04 C
54 21-05-2003 09:07:02 11.3 C 76 % 7.23 C
55 21-05-2003 09:17:02 11.7 C 75 % 7.42 C
56 21-05-2003 09:27:02 12.4 C 72 % 7.5 C
57 21-05-2003 09:37:00 12.2 C 71 % 7.1 C
58 21-05-2003 09:47:00 12.4 C 71 % 7.3 C
59 21-05-2003 09:57:00 12.4 C 69 % 6.88 C
60 21-05-2003 10:07:01 12.8 C 69 % 7.26 C
61 21-05-2003 10:17:01 13 C 68 % 7.24 C
62 21-05-2003 10:27:01 13.5 C 66 % 7.28 C
63 21-05-2003 10:37:01 13.4 C 64 % 6.74 C
64 21-05-2003 10:47:01 13.7 C 64 % 7.02 C
65 21-05-2003 10:57:01 13.9 C 64 % 7.21 C
66 21-05-2003 11:07:01 13.6 C 63 % 6.7 C
67 21-05-2003 11:17:01 14.1 C 64 % 7.4 C
68 21-05-2003 11:27:01 13.8 C 67 % 7.79 C
69 21-05-2003 11:37:01 14.3 C 65 % 7.82 C
70 21-05-2003 11:47:01 14.3 C 63 % 7.36 C
71 21-05-2003 11:57:01 15 C 60 % 7.31 C
72 21-05-2003 12:07:02 15.4 C 59 % 7.44 C
73 21-05-2003 12:17:02 15.6 C 56 % 6.86 C
74 21-05-2003 12:27:02 15.4 C 57 % 6.93 C
75 21-05-2003 12:37:00 16 C 54 % 6.71 C
Sensor: Nr:Datum:Temp:Feuchte:Taupunkt:
Aussen-T/F 76 21-05-2003 12:47:00 16.8 C 54 % 7.45 C
77 21-05-2003 12:57:00 17.1 C 50 % 6.6 C
78 21-05-2003 13:07:00 16.2 C 57 % 7.68 C
79 21-05-2003 13:17:00 13.3 C 73 % 8.57 C
80 21-05-2003 13:27:00 13.2 C 77 % 9.26 C
81 21-05-2003 13:37:01 14.1 C 74 % 9.54 C
82 21-05-2003 13:47:01 13.9 C 76 % 9.74 C
83 21-05-2003 13:57:01 13.4 C 71 % 8.26 C
84 21-05-2003 14:07:01 13.8 C 71 % 8.64 C
85 21-05-2003 14:17:01 14.1 C 69 % 8.5 C
86 21-05-2003 14:27:01 15.1 C 68 % 9.24 C
87 21-05-2003 14:37:02 16.2 C 63 % 9.16 C
88 21-05-2003 14:47:02 15.8 C 61 % 8.3 C
89 21-05-2003 14:57:02 14.5 C 58 % 6.35 C
90 21-05-2003 15:07:01 13.1 C 66 % 6.9 C
91 21-05-2003 15:17:01 12.5 C 79 % 8.96 C
92 21-05-2003 15:27:01 12.9 C 78 % 9.16 C
93 21-05-2003 15:37:00 12.5 C 76 % 8.39 C
94 21-05-2003 15:47:00 12 C 77 % 8.1 C
95 21-05-2003 15:57:00 11.8 C 79 % 8.28 C
96 21-05-2003 16:07:13 12.5 C 78 % 8.77 C
97 21-05-2003 16:17:13 13.7 C 74 % 9.15 C
98 21-05-2003 16:27:13 13.8 C 71 % 8.64 C
99 21-05-2003 16:37:01 14 C 72 % 9.04 C
100 21-05-2003 16:47:01 13.7 C 71 % 8.54 C
Sensor: Nr:Datum:Temp:Feuchte:Taupunkt:
Aussen-T/F 101 21-05-2003 16:57:01 12.5 C 78 % 8.77 C
102 21-05-2003 17:07:04 11.7 C 81 % 8.55 C
103 21-05-2003 17:17:04 12.1 C 80 % 8.76 C
104 21-05-2003 17:27:04 13.5 C 74 % 8.96 C
105 21-05-2003 17:37:01 13.2 C 72 % 8.27 C
106 21-05-2003 17:47:01 13.1 C 73 % 8.38 C
107 21-05-2003 17:57:01 13 C 74 % 8.48 C
108 21-05-2003 18:07:01 13.4 C 74 % 8.87 C
109 21-05-2003 18:17:01 14 C 73 % 9.24 C
110 21-05-2003 18:27:01 13.9 C 73 % 9.15 C
111 21-05-2003 18:37:01 13.7 C 76 % 9.55 C
112 21-05-2003 18:47:01 13.5 C 81 % 10.31 C
113 21-05-2003 18:57:01 13.5 C 82 % 10.49 C
114 21-05-2003 19:07:01 13.2 C 82 % 10.2 C
115 21-05-2003 19:17:01 12.9 C 84 % 10.26 C
116 21-05-2003 19:27:01 12.9 C 85 % 10.44 C
117 21-05-2003 19:37:00 12.6 C 83 % 9.79 C
118 21-05-2003 19:47:00 12.6 C 84 % 9.97 C
119 21-05-2003 19:57:00 12.5 C 85 % 10.05 C
120 21-05-2003 20:07:01 12.3 C 85 % 9.85 C
121 21-05-2003 20:17:01 12.1 C 86 % 9.83 C
122 21-05-2003 20:27:01 12.1 C 87 % 10 C
123 21-05-2003 20:37:00 12.2 C 87 % 10.1 C
124 21-05-2003 20:47:00 12.1 C 87 % 10 C
125 21-05-2003 20:57:00 11.8 C 89 % 10.05 C
Sensor: Nr:Datum:Temp:Feuchte:Taupunkt:
Aussen-T/F 126 21-05-2003 21:07:01 11.7 C 89 % 9.95 C
127 21-05-2003 21:17:01 11.6 C 89 % 9.85 C
128 21-05-2003 21:27:01 11.6 C 90 % 10.02 C
129 21-05-2003 21:37:00 11.6 C 90 % 10.02 C
130 21-05-2003 21:47:00 11.5 C 90 % 9.92 C
131 21-05-2003 21:57:00 11.5 C 90 % 9.92 C
132 21-05-2003 22:07:01 11.6 C 89 % 9.85 C
133 21-05-2003 22:17:01 11.7 C 87 % 9.61 C
134 21-05-2003 22:27:01 11.8 C 85 % 9.36 C
135 21-05-2003 22:38:01 11.7 C 84 % 9.09 C
136 21-05-2003 22:48:01 11.7 C 84 % 9.09 C
137 21-05-2003 22:58:01 11.7 C 84 % 9.09 C
138 21-05-2003 23:08:01 11.7 C 84 % 9.09 C
139 21-05-2003 23:18:01 11.7 C 84 % 9.09 C
140 21-05-2003 23:28:01 11.6 C 84 % 8.99 C
141 21-05-2003 23:38:01 11.6 C 84 % 8.99 C
142 21-05-2003 23:48:01 11.6 C 82 % 8.64 C
143 21-05-2003 23:58:01 11.6 C 82 % 8.64 C

Legende:
   Min
   Max


Maximal/Minimal-Werte vom 21.05.2003 - 21.05.2003

Sensor Min Max Avg
Temp
(Aussen-T/F)
8.8 °C
21-05-2003  06:07:01
17.1 °C
21-05-2003  12:57:00
11.91 °C
Feuchte
(Aussen-T/F)
50 %
21-05-2003  12:57:00
90 %
21-05-2003  06:07:01
75.72 %
Taupunkt
(Aussen-T/F)
3.25 C
21-05-2003  01:17:01
10.49 C
21-05-2003  18:57:01
7.57 C

Die Daten stammen von einer Davis Vantage Pro 2 Wetter-Station und werden unter Linux mit der Software wview2wettercgi und aufbereitet. Alle Angaben erfolgen ohne Gewähr für ihre Vollständigkeit oder Richtigkeit.
Kontakt: Rainer Krienke krienke@uni-koblenz.de . Meine Webseiten an der Uni Koblenz oder privat.
Version: $Revision: 0.78 $